Terminal Aerodrome Forecast
Issued by NWS

Home | Current Version | Previous Version | Graphics & Text | Print | Product List | Glossary On
Versions: 1 2 3 4 5 6 7 8 9 10 11 12 13 14 15 16
000
FTUS41 KCLE 272000 AAB
TAFFDY
TAF AMD
KFDY 272058Z 2721/2818 26012G18KT P6SM OVC030
      TEMPO 2721/2801 2SM -SHSN OVC015
     FM280300 29008KT P6SM OVC035
     FM280700 27006KT P6SM SCT035
     FM281200 22006KT P6SM BKN200=

USA.gov is the U.S. government's official web portal to all federal, state and local government web resources and services.